Time;durP1;ratioP1;P1;durP2;ratioP2;P2;SDS_P1;SDS_P2;PMS_P1;PMS_P2;Temp;Humidity;BMP_temperature;BMP_pressure;BME280_temperature;BME280_humidity;BME280_pressure;Samples;Min_cycle;Max_cycle;Signal;HPM_P1;HPM_P2
2022/10/12 00:01:30;;;;;;;5.00;2.90;;;;;14.60;102372.00;;;;5076190;28;20198;-75
2022/10/12 00:03:57;;;;;;;6.78;3.53;;;;;14.60;102385.00;;;;5082249;28;20719;-75
2022/10/12 00:06:25;;;;;;;7.78;2.75;;;;;14.50;102373.00;;;;5078975;28;20207;-75
2022/10/12 00:08:54;;;;;;;7.32;3.78;;;;;14.50;102383.00;;;;5083533;28;20218;-75
2022/10/12 00:11:23;;;;;;;5.95;3.08;;;;;14.50;102375.00;;;;5078862;28;20653;-76
2022/10/12 00:13:52;;;;;;;5.60;3.33;;;;;14.50;102371.00;;;;5076754;28;20199;-73
2022/10/12 00:16:22;;;;;;;6.18;2.60;;;;;14.50;102373.00;;;;5087189;28;20208;-73
2022/10/12 00:18:51;;;;;;;6.18;3.22;;;;;14.50;102381.00;;;;5089190;28;20206;-73
2022/10/12 00:21:19;;;;;;;4.82;2.63;;;;;14.50;102383.00;;;;5087396;28;20287;-73
2022/10/12 00:23:46;;;;;;;5.85;3.40;;;;;14.50;102372.00;;;;5090872;28;20229;-76
2022/10/12 00:26:16;;;;;;;5.40;2.70;;;;;14.40;102368.00;;;;5088726;28;20198;-75
2022/10/12 00:28:44;;;;;;;5.38;2.70;;;;;14.40;102371.00;;;;5090868;28;20245;-76
2022/10/12 00:31:15;;;;;;;5.05;3.03;;;;;14.40;102368.00;;;;5071582;28;20194;-76
2022/10/12 00:33:42;;;;;;;6.53;2.70;;;;;14.40;102371.00;;;;5070367;28;20206;-76
2022/10/12 00:36:15;;;;;;;4.68;2.63;;;;;14.40;102366.00;;;;5086822;28;20205;-76
2022/10/12 00:38:43;;;;;;;3.72;3.00;;;;;14.40;102365.00;;;;5089675;28;20684;-75
2022/10/12 00:41:11;;;;;;;5.45;2.63;;;;;14.40;102372.00;;;;5088669;28;20205;-76
2022/10/12 00:43:40;;;;;;;6.28;3.03;;;;;14.40;102363.00;;;;5083423;28;20230;-74
2022/10/12 00:46:17;;;;;;;2.88;2.55;;;;;14.30;102363.00;;;;5084373;28;20234;-75
2022/10/12 00:48:46;;;;;;;3.70;2.65;;;;;14.30;102364.00;;;;5087991;28;20658;-75
2022/10/12 00:51:14;;;;;;;5.72;2.53;;;;;14.30;102359.00;;;;5089503;28;20203;-75
2022/10/12 00:53:46;;;;;;;4.80;2.63;;;;;14.30;102356.00;;;;5089401;28;20201;-75
2022/10/12 00:56:17;;;;;;;7.78;3.33;;;;;14.30;102354.00;;;;5090901;28;20720;-74
2022/10/12 00:58:45;;;;;;;5.30;3.05;;;;;14.30;102352.00;;;;5081805;28;20681;-74
2022/10/12 01:01:14;;;;;;;4.75;2.13;;;;;14.30;102351.00;;;;5070751;28;20673;-75
2022/10/12 01:03:42;;;;;;;4.82;2.40;;;;;14.30;102352.00;;;;5075011;28;20214;-74
2022/10/12 01:06:09;;;;;;;3.88;2.60;;;;;14.30;102355.00;;;;5090113;28;20201;-74
2022/10/12 01:08:37;;;;;;;5.18;2.17;;;;;14.20;102353.00;;;;5089112;28;20229;-75
2022/10/12 01:11:05;;;;;;;4.03;2.45;;;;;14.20;102358.00;;;;5089246;28;20276;-74
2022/10/12 01:13:33;;;;;;;3.53;1.70;;;;;14.20;102353.00;;;;5086558;28;20213;-75
2022/10/12 01:16:05;;;;;;;3.05;2.20;;;;;14.20;102352.00;;;;5081986;28;20198;-74
2022/10/12 01:18:40;;;;;;;3.47;1.85;;;;;14.10;102354.00;;;;5086799;28;20245;-74
2022/10/12 01:21:15;;;;;;;4.35;2.10;;;;;14.10;102347.00;;;;5089134;28;20198;-74
2022/10/12 01:24:01;;;;;;;4.63;2.10;;;;;14.10;102347.00;;;;5090129;28;20394;-74
2022/10/12 01:27:00;;;;;;;2.97;1.95;;;;;14.00;102344.00;;;;5087846;28;20202;-75
2022/10/12 01:29:43;;;;;;;3.70;2.17;;;;;14.00;102343.00;;;;5088870;28;20226;-74
2022/10/12 01:32:17;;;;;;;6.30;3.00;;;;;14.10;102337.00;;;;5079669;28;20190;-74
2022/10/12 01:34:47;;;;;;;4.97;2.30;;;;;14.10;102336.00;;;;5081517;28;20656;-74
2022/10/12 01:37:27;;;;;;;2.75;1.52;;;;;14.00;102342.00;;;;5087703;28;20554;-74
2022/10/12 01:39:56;;;;;;;3.42;2.10;;;;;14.10;102341.00;;;;5088528;28;20194;-74
2022/10/12 01:42:28;;;;;;;4.68;1.80;;;;;14.00;102339.00;;;;5088194;28;20559;-75
2022/10/12 01:45:02;;;;;;;4.72;2.38;;;;;14.00;102334.00;;;;5085084;28;20230;-75
2022/10/12 01:47:31;;;;;;;3.15;1.77;;;;;14.00;102336.00;;;;5080747;28;20225;-74
2022/10/12 01:49:59;;;;;;;8.18;2.22;;;;;14.00;102335.00;;;;5089205;28;20198;-75
2022/10/12 01:52:29;;;;;;;3.47;1.92;;;;;14.00;102330.00;;;;5089338;28;20304;-75
2022/10/12 01:55:10;;;;;;;4.78;1.55;;;;;13.90;102328.00;;;;5087685;28;20213;-74
2022/10/12 01:57:50;;;;;;;4.00;1.70;;;;;13.90;102328.00;;;;5087532;28;20595;-75
2022/10/12 02:00:18;;;;;;;3.83;2.00;;;;;14.00;102325.00;;;;5086485;28;20194;-74
2022/10/12 02:02:54;;;;;;;6.10;1.67;;;;;13.90;102323.00;;;;5084407;28;20206;-74
2022/10/12 02:05:30;;;;;;;4.57;2.17;;;;;13.90;102324.00;;;;5084712;28;20614;-75
2022/10/12 02:08:03;;;;;;;3.78;1.30;;;;;13.90;102322.00;;;;5087741;28;20204;-74
2022/10/12 02:10:36;;;;;;;7.93;2.10;;;;;13.90;102319.00;;;;5089378;28;20213;-75
2022/10/12 02:13:06;;;;;;;2.95;1.85;;;;;14.00;102318.00;;;;5089218;28;20203;-75
2022/10/12 02:15:35;;;;;;;2.58;1.67;;;;;14.00;102319.00;;;;5085181;28;20213;-74
2022/10/12 02:18:05;;;;;;;2.85;1.70;;;;;13.90;102323.00;;;;5088746;28;20202;-74
2022/10/12 02:20:34;;;;;;;3.78;1.95;;;;;13.90;102316.00;;;;5085998;28;20210;-75
2022/10/12 02:23:02;;;;;;;3.03;1.60;;;;;13.90;102313.00;;;;5089543;28;20213;-75
2022/10/12 02:25:33;;;;;;;2.92;2.00;;;;;13.90;102314.00;;;;5080264;28;20695;-74
2022/10/12 02:28:07;;;;;;;3.90;2.03;;;;;13.90;102312.00;;;;5083682;28;20568;-75
2022/10/12 02:30:42;;;;;;;1.80;1.40;;;;;13.90;102310.00;;;;5080825;28;20245;-75
2022/10/12 02:33:16;;;;;;;2.70;1.60;;;;;13.90;102308.00;;;;5087472;28;20194;-75
2022/10/12 02:35:49;;;;;;;3.30;1.55;;;;;13.90;102297.00;;;;5086357;28;20201;-74
2022/10/12 02:38:22;;;;;;;4.38;1.30;;;;;13.90;102290.00;;;;5088390;28;20198;-75
2022/10/12 02:40:53;;;;;;;2.63;1.42;;;;;13.90;102293.00;;;;5086854;28;20190;-75
2022/10/12 02:43:24;;;;;;;3.88;1.85;;;;;13.90;102293.00;;;;5088483;28;20198;-75
2022/10/12 02:45:53;;;;;;;2.05;1.58;;;;;13.90;102288.00;;;;5077740;28;20223;-74
2022/10/12 02:48:24;;;;;;;2.05;1.13;;;;;13.90;102294.00;;;;5075398;28;20202;-74
2022/10/12 02:50:56;;;;;;;3.72;1.85;;;;;13.90;102285.00;;;;5068240;28;20657;-74
2022/10/12 02:53:25;;;;;;;2.78;1.88;;;;;13.90;102281.00;;;;5079931;28;20202;-74
2022/10/12 02:55:55;;;;;;;9.13;2.08;;;;;13.90;102281.00;;;;5084753;28;20195;-75
2022/10/12 02:58:22;;;;;;;4.32;1.77;;;;;13.90;102278.00;;;;5087820;28;20313;-74
2022/10/12 03:00:50;;;;;;;5.82;2.08;;;;;13.90;102273.00;;;;5075354;28;20689;-75
2022/10/12 03:03:17;;;;;;;2.72;1.38;;;;;13.90;102283.00;;;;5075312;28;20194;-74
2022/10/12 03:05:46;;;;;;;3.40;1.85;;;;;13.90;102271.00;;;;5083756;28;20229;-74
2022/10/12 03:08:13;;;;;;;3.55;1.85;;;;;13.90;102276.00;;;;5078524;28;20205;-75
2022/10/12 03:10:40;;;;;;;4.45;1.65;;;;;13.90;102274.00;;;;5088116;28;20209;-75
2022/10/12 03:13:08;;;;;;;3.75;2.10;;;;;13.90;102271.00;;;;5087658;28;20205;-74
2022/10/12 03:15:35;;;;;;;4.70;2.13;;;;;13.90;102283.00;;;;5086080;28;20200;-74
2022/10/12 03:18:02;;;;;;;2.65;1.70;;;;;13.90;102271.00;;;;5086579;28;20189;-74
2022/10/12 03:20:29;;;;;;;6.25;1.83;;;;;13.90;102273.00;;;;5085301;28;20210;-75
2022/10/12 03:22:58;;;;;;;4.75;1.70;;;;;13.90;102271.00;;;;5071543;28;20719;-75
2022/10/12 03:25:25;;;;;;;4.28;1.50;;;;;13.90;102275.00;;;;5084538;28;20221;-75
2022/10/12 03:27:53;;;;;;;5.63;1.35;;;;;13.90;102271.00;;;;5087285;28;20578;-75
2022/10/12 03:30:20;;;;;;;3.88;1.48;;;;;13.90;102275.00;;;;5091264;28;20229;-75
2022/10/12 03:32:47;;;;;;;2.17;1.48;;;;;13.90;102266.00;;;;5090003;28;20210;-75
2022/10/12 03:35:15;;;;;;;2.25;1.55;;;;;13.90;102268.00;;;;5086017;28;20198;-75
2022/10/12 03:37:42;;;;;;;2.53;1.30;;;;;13.80;102275.00;;;;5087186;28;20233;-75
2022/10/12 03:40:12;;;;;;;7.38;1.90;;;;;13.80;102267.00;;;;5087535;28;20202;-75
2022/10/12 03:42:39;;;;;;;2.90;1.42;;;;;13.80;102273.00;;;;5081204;28;20212;-75
2022/10/12 03:45:08;;;;;;;3.67;1.95;;;;;13.80;102272.00;;;;5083245;28;20700;-75
2022/10/12 03:47:36;;;;;;;7.13;2.25;;;;;13.80;102269.00;;;;5085822;28;20203;-75
2022/10/12 03:50:04;;;;;;;2.03;1.58;;;;;13.80;102262.00;;;;5087495;28;20198;-75
2022/10/12 03:52:31;;;;;;;2.67;1.77;;;;;13.80;102277.00;;;;5087679;28;20190;-75
2022/10/12 03:54:58;;;;;;;4.07;1.60;;;;;13.80;102265.00;;;;5090433;28;20675;-75
2022/10/12 03:57:27;;;;;;;4.90;1.60;;;;;13.80;102265.00;;;;5090616;28;20195;-75
2022/10/12 03:59:54;;;;;;;4.35;1.42;;;;;13.80;102263.00;;;;5091098;28;20205;-75
2022/10/12 04:02:22;;;;;;;2.80;1.52;;;;;13.70;102256.00;;;;5090932;28;20630;-75
2022/10/12 04:04:49;;;;;;;5.10;1.63;;;;;13.70;102258.00;;;;5085154;28;20226;-75
2022/10/12 04:07:16;;;;;;;2.95;2.28;;;;;13.70;102249.00;;;;5090130;28;20202;-75
2022/10/12 04:09:43;;;;;;;4.25;1.88;;;;;13.70;102265.00;;;;5084564;28;20202;-74
2022/10/12 04:12:11;;;;;;;2.83;1.52;;;;;13.70;102253.00;;;;5090956;28;20223;-75
2022/10/12 04:14:39;;;;;;;3.33;1.77;;;;;13.70;102252.00;;;;5089684;28;20202;-75
2022/10/12 04:17:06;;;;;;;5.38;1.58;;;;;13.60;102252.00;;;;5083214;28;20206;-75
2022/10/12 04:19:34;;;;;;;3.60;1.52;;;;;13.60;102251.00;;;;5089885;28;20218;-75
2022/10/12 04:22:01;;;;;;;3.65;1.70;;;;;13.60;102261.00;;;;5091453;28;20194;-75
2022/10/12 04:24:28;;;;;;;3.25;1.90;;;;;13.60;102258.00;;;;5088792;28;20222;-75
2022/10/12 04:26:55;;;;;;;5.38;1.63;;;;;13.60;102254.00;;;;5083851;28;20190;-75
2022/10/12 04:29:23;;;;;;;3.42;1.42;;;;;13.50;102257.00;;;;5070949;28;20603;-75
2022/10/12 04:31:51;;;;;;;5.75;2.10;;;;;13.50;102260.00;;;;5070429;28;20195;-75
2022/10/12 04:34:19;;;;;;;11.82;2.50;;;;;13.50;102255.00;;;;5073515;28;20198;-75
2022/10/12 04:36:46;;;;;;;4.78;2.15;;;;;13.50;102246.00;;;;5090444;28;20202;-75
2022/10/12 04:39:13;;;;;;;3.80;2.28;;;;;13.50;102252.00;;;;5085552;28;20194;-75
2022/10/12 04:41:41;;;;;;;3.13;1.65;;;;;13.40;102253.00;;;;5086327;28;20194;-75
2022/10/12 04:44:08;;;;;;;3.53;2.05;;;;;13.40;102251.00;;;;5088009;28;20656;-75
2022/10/12 04:46:35;;;;;;;3.78;2.00;;;;;13.40;102251.00;;;;5088718;28;20202;-75
2022/10/12 04:49:04;;;;;;;3.70;2.17;;;;;13.30;102253.00;;;;5086425;28;20205;-75
2022/10/12 04:51:31;;;;;;;3.42;1.70;;;;;13.30;102250.00;;;;5084432;28;20202;-75
2022/10/12 04:53:58;;;;;;;3.80;2.05;;;;;13.30;102247.00;;;;5085165;28;20214;-75
2022/10/12 04:56:26;;;;;;;5.78;2.53;;;;;13.30;102251.00;;;;5084094;28;20194;-75
2022/10/12 04:58:53;;;;;;;7.63;2.00;;;;;13.30;102253.00;;;;5085470;28;20206;-75
2022/10/12 05:01:20;;;;;;;6.45;1.70;;;;;13.30;102255.00;;;;5087141;28;20199;-75
2022/10/12 05:03:48;;;;;;;3.72;2.00;;;;;13.30;102253.00;;;;5089772;28;20194;-75
2022/10/12 05:06:16;;;;;;;2.97;1.95;;;;;13.20;102256.00;;;;5087890;28;20222;-75
2022/10/12 05:08:44;;;;;;;2.90;2.00;;;;;13.20;102248.00;;;;5071488;28;20569;-75
2022/10/12 05:11:11;;;;;;;2.92;2.17;;;;;13.20;102246.00;;;;5075279;28;20634;-75
2022/10/12 05:13:38;;;;;;;4.88;2.15;;;;;13.20;102244.00;;;;5085429;28;20206;-75
2022/10/12 05:16:06;;;;;;;3.90;2.20;;;;;13.20;102246.00;;;;5088838;28;20227;-75
2022/10/12 05:18:33;;;;;;;4.40;2.15;;;;;13.20;102239.00;;;;5084631;28;20573;-75
2022/10/12 05:21:00;;;;;;;7.40;2.65;;;;;13.20;102237.00;;;;5085571;28;20546;-75
2022/10/12 05:23:29;;;;;;;4.20;2.28;;;;;13.10;102242.00;;;;5085575;28;20206;-75
2022/10/12 05:25:57;;;;;;;4.97;2.00;;;;;13.10;102244.00;;;;5083880;28;20229;-76
2022/10/12 05:28:25;;;;;;;4.10;1.80;;;;;13.10;102239.00;;;;5069967;28;20195;-76
2022/10/12 05:30:53;;;;;;;6.13;2.00;;;;;13.10;102233.00;;;;5079330;28;20198;-75
2022/10/12 05:33:20;;;;;;;2.65;2.00;;;;;13.10;102235.00;;;;5080037;28;20195;-75
2022/10/12 05:35:49;;;;;;;4.50;1.77;;;;;13.10;102232.00;;;;5088068;28;20202;-75
2022/10/12 05:38:16;;;;;;;3.25;1.58;;;;;13.10;102234.00;;;;5088560;28;20202;-75
2022/10/12 05:40:45;;;;;;;3.55;2.22;;;;;13.00;102233.00;;;;5089142;28;20201;-75
2022/10/12 05:43:12;;;;;;;3.10;1.98;;;;;13.00;102238.00;;;;5082618;28;20194;-76
2022/10/12 05:45:39;;;;;;;3.25;1.77;;;;;13.00;102233.00;;;;5083600;28;20224;-76
2022/10/12 05:48:07;;;;;;;3.88;1.70;;;;;13.00;102233.00;;;;5071302;28;20736;-76
2022/10/12 05:50:34;;;;;;;5.57;2.10;;;;;13.00;102231.00;;;;5074396;28;20198;-75
2022/10/12 05:53:01;;;;;;;3.35;1.77;;;;;13.00;102236.00;;;;5087601;28;20202;-75
2022/10/12 05:55:29;;;;;;;5.60;2.10;;;;;13.00;102239.00;;;;5082972;28;20231;-75
2022/10/12 05:57:57;;;;;;;2.88;1.80;;;;;13.00;102234.00;;;;5080160;28;20195;-75
2022/10/12 06:00:25;;;;;;;4.35;2.40;;;;;13.00;102228.00;;;;5082867;28;20673;-75
2022/10/12 06:02:52;;;;;;;4.00;2.33;;;;;13.00;102231.00;;;;5082406;28;20210;-75
2022/10/12 06:05:19;;;;;;;5.38;1.95;;;;;13.00;102230.00;;;;5076737;28;20695;-74
2022/10/12 06:07:46;;;;;;;4.72;2.55;;;;;13.00;102231.00;;;;5077767;28;20213;-74
2022/10/12 06:10:13;;;;;;;7.35;2.33;;;;;13.00;102237.00;;;;5078797;28;20194;-74
2022/10/12 06:12:42;;;;;;;4.60;2.70;;;;;13.00;102231.00;;;;5080466;28;20600;-74
2022/10/12 06:15:11;;;;;;;5.80;2.83;;;;;13.00;102230.00;;;;5089638;28;20306;-75
2022/10/12 06:17:38;;;;;;;5.47;2.63;;;;;13.00;102220.00;;;;5083300;28;20561;-76
2022/10/12 06:20:06;;;;;;;5.30;2.53;;;;;13.00;102220.00;;;;5087810;28;20711;-76
2022/10/12 06:22:33;;;;;;;4.78;2.35;;;;;13.00;102228.00;;;;5088639;28;20198;-76
2022/10/12 06:25:01;;;;;;;6.03;2.72;;;;;13.00;102223.00;;;;5083642;28;20194;-75
2022/10/12 06:27:28;;;;;;;5.10;2.63;;;;;13.00;102218.00;;;;5074141;28;20198;-75
2022/10/12 06:29:55;;;;;;;5.32;2.65;;;;;13.00;102212.00;;;;5087448;28;20603;-75
2022/10/12 06:32:24;;;;;;;5.32;2.80;;;;;13.10;102214.00;;;;5084272;28;20229;-75
2022/10/12 06:34:51;;;;;;;4.75;2.65;;;;;13.10;102226.00;;;;5080515;28;20199;-76
2022/10/12 06:37:18;;;;;;;5.70;2.65;;;;;13.10;102227.00;;;;5080383;28;20232;-75
2022/10/12 06:39:46;;;;;;;7.60;3.95;;;;;13.10;102229.00;;;;5087434;28;20203;-75
2022/10/12 06:42:13;;;;;;;7.18;3.65;;;;;13.10;102234.00;;;;5071864;28;20198;-75
2022/10/12 06:44:40;;;;;;;9.45;6.97;;;;;13.10;102233.00;;;;5088014;28;20205;-75
2022/10/12 06:47:07;;;;;;;7.18;5.85;;;;;13.20;102224.00;;;;5087713;28;20715;-75
2022/10/12 06:49:36;;;;;;;8.43;5.03;;;;;13.20;102230.00;;;;5078263;28;20514;-76
2022/10/12 06:52:03;;;;;;;7.28;4.78;;;;;13.20;102232.00;;;;5085589;28;20204;-75
2022/10/12 06:54:31;;;;;;;7.25;5.45;;;;;13.20;102224.00;;;;5088034;28;20209;-73
2022/10/12 06:56:58;;;;;;;5.97;5.18;;;;;13.30;102225.00;;;;5087800;28;20251;-73
2022/10/12 06:59:25;;;;;;;12.63;7.13;;;;;13.30;102225.00;;;;5088239;28;20206;-73
2022/10/12 07:01:52;;;;;;;12.43;8.25;;;;;13.30;102226.00;;;;5083349;28;20199;-73
2022/10/12 07:04:19;;;;;;;12.05;7.35;;;;;13.30;102222.00;;;;5085024;28;20679;-75
2022/10/12 07:06:48;;;;;;;10.80;6.50;;;;;13.30;102217.00;;;;5078430;28;20229;-75
2022/10/12 07:09:17;;;;;;;8.85;4.97;;;;;13.40;102217.00;;;;5085452;28;20209;-75
2022/10/12 07:11:44;;;;;;;6.28;4.53;;;;;13.40;102211.00;;;;5081489;28;20652;-75
2022/10/12 07:14:11;;;;;;;6.15;3.58;;;;;13.50;102210.00;;;;5081406;28;20198;-75
2022/10/12 07:16:38;;;;;;;7.38;3.45;;;;;13.50;102208.00;;;;5081110;28;20195;-74
2022/10/12 07:19:06;;;;;;;6.63;2.90;;;;;13.50;102204.00;;;;5079879;28;20217;-75
2022/10/12 07:21:33;;;;;;;4.40;2.75;;;;;13.60;102211.00;;;;5075947;28;20202;-75
2022/10/12 07:24:02;;;;;;;4.07;2.80;;;;;13.60;102213.00;;;;5075370;28;20190;-75
2022/10/12 07:26:30;;;;;;;6.50;2.67;;;;;13.70;102212.00;;;;5078263;28;20215;-75
2022/10/12 07:28:58;;;;;;;4.60;2.58;;;;;13.70;102203.00;;;;5077924;28;20223;-76
2022/10/12 07:31:25;;;;;;;5.05;3.47;;;;;13.80;102210.00;;;;5077632;28;20218;-75
2022/10/12 07:33:52;;;;;;;4.20;2.65;;;;;13.90;102207.00;;;;5076112;28;20661;-76
2022/10/12 07:36:19;;;;;;;7.00;3.17;;;;;13.90;102207.00;;;;5076772;28;20935;-76
2022/10/12 07:38:47;;;;;;;6.35;3.03;;;;;14.00;102218.00;;;;5080260;28;20222;-74
2022/10/12 07:41:17;;;;;;;5.15;3.53;;;;;14.10;102222.00;;;;5075221;28;20317;-74
2022/10/12 07:43:44;;;;;;;7.97;3.35;;;;;14.20;102220.00;;;;5078369;28;20539;-73
2022/10/12 07:46:11;;;;;;;7.38;3.42;;;;;14.30;102216.00;;;;5085541;28;20225;-74
2022/10/12 07:48:40;;;;;;;5.43;2.97;;;;;14.40;102218.00;;;;5086035;28;20233;-74
2022/10/12 07:51:09;;;;;;;6.70;4.50;;;;;14.50;102220.00;;;;5078770;28;20293;-76
2022/10/12 07:53:38;;;;;;;5.97;3.45;;;;;14.60;102219.00;;;;5078614;28;20670;-76
2022/10/12 07:56:08;;;;;;;6.63;4.03;;;;;14.70;102213.00;;;;5083323;28;20194;-74
2022/10/12 07:58:36;;;;;;;6.82;3.72;;;;;14.80;102217.00;;;;5084019;28;20199;-75
2022/10/12 08:01:05;;;;;;;6.80;3.97;;;;;14.90;102228.00;;;;5087572;28;20205;-74
2022/10/12 08:03:33;;;;;;;4.43;3.38;;;;;15.00;102227.00;;;;5080407;28;20201;-77
2022/10/12 08:06:07;;;;;;;4.80;3.78;;;;;15.00;102220.00;;;;5086445;28;20218;-76
2022/10/12 08:08:34;;;;;;;5.72;3.88;;;;;15.00;102234.00;;;;5090079;28;20202;-76
2022/10/12 08:11:01;;;;;;;10.02;4.93;;;;;15.10;102235.00;;;;5088007;28;20217;-74
2022/10/12 08:13:29;;;;;;;8.13;5.80;;;;;15.10;102231.00;;;;5083835;28;20746;-74
2022/10/12 08:15:57;;;;;;;12.40;4.97;;;;;15.20;102238.00;;;;5085707;28;20203;-74
2022/10/12 08:18:25;;;;;;;5.43;3.80;;;;;15.30;102241.00;;;;5084662;28;20225;-74
2022/10/12 08:20:52;;;;;;;11.15;4.60;;;;;15.30;102241.00;;;;5083148;28;20199;-74
2022/10/12 08:23:19;;;;;;;7.35;4.80;;;;;15.40;102233.00;;;;5088767;28;20730;-74
2022/10/12 08:25:52;;;;;;;8.82;4.05;;;;;15.40;102243.00;;;;5076841;28;20229;-74
2022/10/12 08:28:19;;;;;;;9.63;4.28;;;;;15.50;102238.00;;;;5078834;28;20199;-74
2022/10/12 08:30:46;;;;;;;6.50;4.18;;;;;15.50;102244.00;;;;5086111;28;20209;-75
2022/10/12 08:33:15;;;;;;;5.22;3.85;;;;;15.60;102240.00;;;;5079769;28;20198;-75
2022/10/12 08:35:43;;;;;;;8.52;4.47;;;;;15.70;102235.00;;;;5077214;28;20198;-75
2022/10/12 08:38:11;;;;;;;8.82;3.75;;;;;15.70;102244.00;;;;5079405;28;20203;-75
2022/10/12 08:40:47;;;;;;;5.32;3.60;;;;;15.80;102243.00;;;;5079456;28;20236;-76
2022/10/12 08:43:25;;;;;;;7.32;4.13;;;;;15.90;102241.00;;;;5083872;28;20770;-75
2022/10/12 08:45:55;;;;;;;5.25;3.55;;;;;16.00;102231.00;;;;5087827;28;20722;-75
2022/10/12 08:48:27;;;;;;;9.13;4.15;;;;;16.10;102233.00;;;;5084585;28;20229;-75
2022/10/12 08:50:57;;;;;;;7.80;3.97;;;;;16.20;102234.00;;;;5077496;28;20194;-76
2022/10/12 08:53:28;;;;;;;8.32;4.45;;;;;16.20;102233.00;;;;5086613;28;20201;-75
2022/10/12 08:55:57;;;;;;;9.10;4.35;;;;;16.30;102227.00;;;;5085071;28;20214;-75
2022/10/12 08:58:28;;;;;;;6.30;4.50;;;;;16.40;102228.00;;;;5082726;28;20222;-75
2022/10/12 09:01:01;;;;;;;8.50;4.05;;;;;16.50;102226.00;;;;5077909;28;20194;-75
2022/10/12 09:03:43;;;;;;;8.43;4.75;;;;;16.60;102233.00;;;;5080428;28;20210;-75
2022/10/12 09:06:14;;;;;;;6.60;4.35;;;;;16.80;102242.00;;;;5083127;28;20231;-75
2022/10/12 09:09:01;;;;;;;9.02;3.92;;;;;16.80;102240.00;;;;5087963;28;20191;-75
2022/10/12 09:11:42;;;;;;;7.82;4.10;;;;;17.00;102241.00;;;;5071763;28;20207;-75
2022/10/12 09:14:15;;;;;;;6.32;4.53;;;;;17.20;102243.00;;;;5078664;28;20205;-75
2022/10/12 09:16:45;;;;;;;7.25;4.32;;;;;17.40;102244.00;;;;5075486;28;20187;-75
2022/10/12 09:19:18;;;;;;;6.60;4.93;;;;;17.50;102248.00;;;;5085402;28;20217;-75
2022/10/12 09:21:47;;;;;;;5.85;4.50;;;;;17.60;102252.00;;;;5081533;28;20203;-75
2022/10/12 09:24:18;;;;;;;7.93;4.85;;;;;17.70;102250.00;;;;5078716;28;20213;-75
2022/10/12 09:26:49;;;;;;;6.53;4.35;;;;;17.80;102243.00;;;;5075000;28;20313;-75
2022/10/12 09:29:25;;;;;;;8.88;4.97;;;;;17.90;102237.00;;;;5073145;28;20230;-75
2022/10/12 09:32:25;;;;;;;10.18;4.75;;;;;18.00;102230.00;;;;5074144;28;21913;-75
2022/10/12 09:34:56;;;;;;;8.70;4.95;;;;;18.20;102230.00;;;;5080487;28;20651;-76
2022/10/12 09:37:26;;;;;;;6.60;4.65;;;;;18.40;102229.00;;;;5076892;28;20199;-75
2022/10/12 09:39:53;;;;;;;9.13;4.40;;;;;18.50;102225.00;;;;5079198;28;20198;-75
2022/10/12 09:42:21;;;;;;;7.85;4.72;;;;;18.60;102232.00;;;;5086874;28;20194;-75
2022/10/12 09:44:50;;;;;;;6.93;4.32;;;;;18.70;102232.00;;;;5073947;28;20224;-75
2022/10/12 09:47:27;;;;;;;5.25;3.78;;;;;18.80;102240.00;;;;5079205;28;20711;-76
2022/10/12 09:49:57;;;;;;;8.75;5.35;;;;;18.90;102227.00;;;;5070727;28;20199;-76
2022/10/12 09:52:28;;;;;;;10.00;4.53;;;;;18.90;102238.00;;;;5070538;28;20194;-76
2022/10/12 09:54:59;;;;;;;13.27;8.63;;;;;19.00;102234.00;;;;5077346;28;20198;-76
2022/10/12 09:57:30;;;;;;;12.52;9.43;;;;;19.10;102234.00;;;;5069347;28;20248;-77
2022/10/12 09:59:58;;;;;;;24.83;13.25;;;;;19.20;102232.00;;;;5075905;28;20194;-76
2022/10/12 10:02:26;;;;;;;15.82;9.35;;;;;19.40;102220.00;;;;5079169;28;20278;-76
2022/10/12 10:04:56;;;;;;;15.02;6.60;;;;;19.50;102215.00;;;;5077423;28;20194;-77
2022/10/12 10:07:27;;;;;;;9.15;5.55;;;;;19.60;102208.00;;;;5076494;28;20242;-76
2022/10/12 10:10:14;;;;;;;11.80;6.30;;;;;19.70;102205.00;;;;5078556;28;20782;-76
2022/10/12 10:12:53;;;;;;;11.77;6.35;;;;;19.90;102204.00;;;;5076829;28;20256;-76
2022/10/12 10:15:24;;;;;;;7.18;4.75;;;;;20.00;102202.00;;;;5076136;28;20221;-76
2022/10/12 10:17:54;;;;;;;6.30;4.22;;;;;20.00;102205.00;;;;5081128;28;20566;-76
2022/10/12 10:20:38;;;;;;;7.28;3.90;;;;;20.10;102201.00;;;;5067127;28;20234;-76
2022/10/12 10:23:06;;;;;;;8.93;3.63;;;;;20.20;102200.00;;;;5076422;28;20198;-76
2022/10/12 10:25:53;;;;;;;7.95;3.60;;;;;20.20;102199.00;;;;5071964;28;20294;-76
2022/10/12 10:28:23;;;;;;;5.20;3.17;;;;;20.30;102206.00;;;;5082619;28;20227;-77
2022/10/12 10:31:01;;;;;;;7.60;3.70;;;;;20.30;102211.00;;;;5085273;28;20203;-77
2022/10/12 10:33:29;;;;;;;6.03;3.25;;;;;20.50;102213.00;;;;5083562;28;20716;-76
2022/10/12 10:36:01;;;;;;;4.95;3.55;;;;;20.60;102210.00;;;;5080731;28;20567;-76
2022/10/12 10:38:32;;;;;;;7.18;4.03;;;;;20.70;102211.00;;;;5078366;28;20223;-75
2022/10/12 10:41:02;;;;;;;6.13;3.70;;;;;20.80;102215.00;;;;5082802;28;20659;-75
2022/10/12 10:43:31;;;;;;;6.90;3.20;;;;;20.90;102219.00;;;;5082399;28;20439;-75
2022/10/12 10:46:00;;;;;;;6.30;3.65;;;;;20.90;102221.00;;;;5077834;28;20229;-75
2022/10/12 10:48:30;;;;;;;7.43;3.80;;;;;21.00;102213.00;;;;5073773;28;20608;-75
2022/10/12 10:51:01;;;;;;;6.45;3.65;;;;;21.10;102210.00;;;;5077923;28;20204;-75
2022/10/12 10:53:31;;;;;;;8.52;3.85;;;;;21.20;102208.00;;;;5082348;28;20214;-76
2022/10/12 10:56:04;;;;;;;9.05;3.33;;;;;21.30;102193.00;;;;5079711;28;20222;-75
2022/10/12 10:58:37;;;;;;;9.48;3.60;;;;;21.30;102189.00;;;;5086583;28;20209;-76
2022/10/12 11:01:13;;;;;;;8.40;3.55;;;;;21.40;102189.00;;;;5088489;28;20209;-76
2022/10/12 11:03:48;;;;;;;5.75;3.42;;;;;21.40;102183.00;;;;5087009;28;20633;-76
2022/10/12 11:06:23;;;;;;;7.18;3.03;;;;;21.50;102181.00;;;;5085924;28;20202;-76
2022/10/12 11:08:56;;;;;;;7.70;3.15;;;;;21.60;102169.00;;;;5079055;28;20221;-76
2022/10/12 11:11:26;;;;;;;7.63;4.00;;;;;21.70;102164.00;;;;5068886;28;20360;-76
2022/10/12 11:13:59;;;;;;;7.10;3.83;;;;;21.70;102165.00;;;;5070722;28;20680;-76
2022/10/12 11:16:34;;;;;;;8.18;3.35;;;;;21.80;102159.00;;;;5086520;28;20563;-76
2022/10/12 11:19:06;;;;;;;7.95;4.68;;;;;21.80;102149.00;;;;5079627;28;20226;-76
2022/10/12 11:21:43;;;;;;;7.40;3.97;;;;;21.80;102137.00;;;;5085880;28;20301;-76
2022/10/12 11:24:14;;;;;;;6.72;3.75;;;;;21.90;102127.00;;;;5081106;28;20563;-76
2022/10/12 11:26:46;;;;;;;9.98;3.67;;;;;21.90;102119.00;;;;5080369;28;20226;-76
2022/10/12 11:29:16;;;;;;;6.68;3.40;;;;;22.00;102122.00;;;;5084006;28;20218;-76
2022/10/12 11:31:47;;;;;;;8.05;3.50;;;;;22.00;102110.00;;;;5085033;28;20206;-77
2022/10/12 11:34:19;;;;;;;7.00;3.90;;;;;22.00;102105.00;;;;5071508;28;20206;-77
2022/10/12 11:36:51;;;;;;;7.05;4.38;;;;;22.10;102111.00;;;;5074595;28;20209;-76
2022/10/12 11:39:32;;;;;;;4.70;3.28;;;;;22.10;102106.00;;;;5086610;28;20198;-76
2022/10/12 11:42:02;;;;;;;6.13;3.88;;;;;22.20;102107.00;;;;5087332;28;20198;-76
2022/10/12 11:44:39;;;;;;;5.75;3.90;;;;;22.20;102104.00;;;;5075203;28;20201;-77
2022/10/12 11:47:14;;;;;;;5.85;3.03;;;;;22.20;102104.00;;;;5076968;28;20217;-77
2022/10/12 11:49:51;;;;;;;6.93;2.90;;;;;22.20;102103.00;;;;5067239;28;20210;-78
2022/10/12 11:52:22;;;;;;;6.35;2.50;;;;;22.30;102099.00;;;;5083451;28;20201;-77
2022/10/12 11:54:56;;;;;;;5.00;3.08;;;;;22.30;102101.00;;;;5087452;28;20206;-76
2022/10/12 11:57:29;;;;;;;4.30;2.45;;;;;22.30;102109.00;;;;5086985;28;20189;-76
2022/10/12 12:00:01;;;;;;;5.43;3.10;;;;;22.20;102093.00;;;;5082340;28;20225;-77
2022/10/12 12:02:32;;;;;;;5.32;2.60;;;;;22.20;102097.00;;;;5086807;28;20204;-76
2022/10/12 12:05:02;;;;;;;7.93;3.25;;;;;22.20;102097.00;;;;5081615;28;20195;-76
2022/10/12 12:07:42;;;;;;;5.20;3.00;;;;;22.10;102108.00;;;;5069621;28;20718;-76
2022/10/12 12:10:51;;;;;;;4.60;2.90;;;;;22.10;102110.00;;;;5077506;28;20203;-77
2022/10/12 12:13:25;;;;;;;6.35;2.67;;;;;22.10;102117.00;;;;5081977;28;20277;-77
2022/10/12 12:16:35;;;;;;;10.02;3.50;;;;;22.00;102109.00;;;;5075999;28;20195;-77
2022/10/12 12:19:36;;;;;;;4.60;2.85;;;;;21.90;102100.00;;;;5079677;28;20688;-76
2022/10/12 12:22:17;;;;;;;4.63;3.38;;;;;21.90;102104.00;;;;5077362;28;20198;-77
2022/10/12 12:24:58;;;;;;;7.00;3.30;;;;;21.80;102093.00;;;;5079398;28;20236;-77